Pagina principale
METAR-TAF:

METAR-TAF

Aeroporti :

Frosinone, Italia

latitudine: 41-38N, longitudine: 013-18E, altezza: 180 m

Osservazione

Il bollettino è stato emesso 1 ora e 17 minuti fa, alle 14:55 UTC
Vento 3 kt da sud/sud-est
Temperature 8°C
Umidità 87%
Pressione 1020 hPa
Visibilità: 1500 m
Nubi sparse ad un'altezza di 500 ft
Nuvoloso ad un'altezza di 2500 ft
foschia

METAR: LIRH 201455Z 16003KT 1500 BR SCT005 BKN025 08/06 Q1020 RMK OVC MON INVIS NC VIS MIN 1500 WIND THR16 17003KT AMB

Ora: 17:12 (16:12 UTC)

Previsione

Il bollettino è stato emesso 2 ore e 12 minuti fa, alle 14:00 UTC
Previsione valida dal 20 alle 15 UTC al 20 alle 24 UTC
Vento 3 kt da direzioni variabili
Visibilità: 3000 m
Nubi sparse ad un'altezza di 2500 ft
foschia
Temporaneamente
dal 20 alle 15 UTC al 20 alle 18 UTC
Visibilità: 1200 m
Nuvoloso ad un'altezza di 2000 ft
pioggia

TAF: LIRH 201400Z 2015/2024 VRB03KT 3000 BR SCT025 TEMPO 2015/2018 1200 RA BKN020

Osservazioni e previsioni meteorologiche di più di 4000 aeroporti (messaggi METAR e TAF).

Le stazioni disponibili sono rappresentate dai dischi gialli e rossi sulla carta.

Puntare il mouse per vedere il nome della stazione.

Clicca sopra per visualizzare le osservazioni e previsioni meteorologiche.

Per cambiare la mappa : fare clic sui pulsanti verdi con una croce nera per ingrandire, il pulsante verde con un trattino per diminuire, o sulla freccia verde per le mappe adiacenti.


METAR-TAF: